Time;durP1;ratioP1;P1;durP2;ratioP2;P2;SDS_P1;SDS_P2;PMS_P1;PMS_P2;Temp;Humidity;BMP_temperature;BMP_pressure;BME280_temperature;BME280_humidity;BME280_pressure;Samples;Min_cycle;Max_cycle;Signal;HPM_P1;HPM_P2
2022/11/08 00:01:31;;;;;;;27.05;26.00;;;;;;;11.24;100.00;100845.84;5074505;28;20047;-79
2022/11/08 00:03:58;;;;;;;29.20;27.60;;;;;;;11.13;100.00;100827.59;5075764;28;20071;-78
2022/11/08 00:14:35;;;;;;;26.60;25.08;;;;;;;11.20;100.00;100822.53;5048314;28;20154;-78
2022/11/08 00:17:01;;;;;;;31.10;29.23;;;;;;;11.28;100.00;100841.91;5059999;28;20464;-79
2022/11/08 00:19:26;;;;;;;25.40;24.35;;;;;;;11.33;100.00;100844.06;5041814;28;20112;-78
2022/11/08 00:21:52;;;;;;;27.42;26.40;;;;;;;11.33;100.00;100841.44;5059746;28;20072;-78
2022/11/08 00:24:18;;;;;;;29.60;28.35;;;;;;;11.34;100.00;100835.16;5074787;28;20028;-78
2022/11/08 00:26:43;;;;;;;29.95;28.70;;;;;;;11.34;100.00;100840.44;5077381;28;20071;-78
2022/11/08 00:29:08;;;;;;;28.15;26.73;;;;;;;11.28;100.00;100830.50;5040982;28;20060;-78
2022/11/08 00:31:34;;;;;;;31.50;29.70;;;;;;;11.32;100.00;100815.97;5057721;28;20435;-78
2022/11/08 00:33:59;;;;;;;30.75;29.27;;;;;;;11.37;100.00;100824.28;5042148;28;20035;-78
2022/11/08 00:36:25;;;;;;;28.17;26.48;;;;;;;11.39;100.00;100832.88;5057939;28;20215;-78
2022/11/08 00:38:50;;;;;;;30.23;28.70;;;;;;;11.39;100.00;100827.59;5076419;28;20036;-79
2022/11/08 00:41:15;;;;;;;26.77;25.70;;;;;;;11.38;100.00;100822.47;5057528;28;20415;-79
2022/11/08 00:43:41;;;;;;;27.08;25.67;;;;;;;11.40;100.00;100823.97;5037993;28;20395;-79
2022/11/08 00:46:06;;;;;;;24.88;23.35;;;;;;;11.40;100.00;100818.69;5077475;28;20476;-79
2022/11/08 00:48:32;;;;;;;25.60;24.13;;;;;;;11.31;100.00;100804.59;5053991;28;20036;-79
2022/11/08 00:51:06;;;;;;;27.95;26.90;;;;;;;11.34;100.00;100798.16;5054229;28;20029;-79
2022/11/08 00:53:31;;;;;;;25.35;24.02;;;;;;;11.46;100.00;100812.78;5059237;28;20487;-78
2022/11/08 00:56:01;;;;;;;22.40;21.38;;;;;;;11.45;100.00;100810.28;5059812;28;20059;-79
2022/11/08 00:58:27;;;;;;;29.45;27.85;;;;;;;11.48;100.00;100808.16;5077315;28;20036;-78
2022/11/08 01:00:53;;;;;;;33.20;31.60;;;;;;;11.45;100.00;100802.34;5059802;28;20029;-78
2022/11/08 01:03:18;;;;;;;23.50;22.27;;;;;;;11.43;100.00;100805.19;5072989;28;20039;-78
2022/11/08 01:05:45;;;;;;;23.92;22.85;;;;;;;11.49;100.00;100806.34;5026051;28;20033;-78
2022/11/08 01:08:11;;;;;;;28.38;26.67;;;;;;;11.32;100.00;100789.56;5058781;28;20088;-79
2022/11/08 01:10:45;;;;;;;24.98;23.88;;;;;;;11.50;100.00;100814.13;5039458;28;20023;-78
2022/11/08 01:13:12;;;;;;;24.05;22.40;;;;;;;11.49;100.00;100815.09;5076163;28;20033;-78
2022/11/08 01:15:40;;;;;;;19.63;18.80;;;;;;;11.47;100.00;100798.56;5074155;28;20028;-78
2022/11/08 01:18:07;;;;;;;21.75;20.70;;;;;;;11.51;100.00;100809.66;5076686;28;20434;-78
2022/11/08 01:20:37;;;;;;;24.92;23.63;;;;;;;11.38;100.00;100786.28;5074133;28;20085;-79
2022/11/08 01:23:03;;;;;;;19.08;18.20;;;;;;;11.45;100.00;100797.91;5076003;28;20024;-79
2022/11/08 01:25:28;;;;;;;22.23;20.98;;;;;;;11.51;100.00;100815.75;5078573;28;20043;-78
2022/11/08 01:27:53;;;;;;;22.63;21.50;;;;;;;11.50;100.00;100811.47;5043964;28;20048;-79
2022/11/08 01:30:19;;;;;;;21.70;20.75;;;;;;;11.49;100.00;100807.16;5063640;28;20062;-79
2022/11/08 01:32:44;;;;;;;22.35;20.17;;;;;;;11.48;100.00;100802.88;5080094;28;20054;-78
2022/11/08 01:35:09;;;;;;;22.00;21.00;;;;;;;11.46;100.00;100799.56;5082000;28;20032;-78
2022/11/08 01:37:35;;;;;;;29.65;28.45;;;;;;;11.44;100.00;100800.72;5044784;28;20108;-78
2022/11/08 01:40:00;;;;;;;19.52;18.63;;;;;;;11.46;100.00;100796.91;5063454;28;20377;-79
2022/11/08 01:42:31;;;;;;;21.08;19.85;;;;;;;11.43;100.00;100797.25;5064304;28;20032;-79
2022/11/08 01:45:00;;;;;;;18.02;17.35;;;;;;;11.26;100.00;100775.19;5081236;28;20043;-79
2022/11/08 01:47:25;;;;;;;19.60;18.85;;;;;;;11.34;100.00;100795.53;5046349;28;20602;-78
2022/11/08 01:49:55;;;;;;;20.83;19.73;;;;;;;11.15;100.00;100774.59;5081035;28;20094;-79
2022/11/08 01:52:32;;;;;;;23.50;22.45;;;;;;;11.21;100.00;100806.50;5080105;28;20620;-79
2022/11/08 01:55:20;;;;;;;19.92;18.92;;;;;;;11.07;100.00;100788.59;5063210;28;20035;-79
2022/11/08 01:58:18;;;;;;;23.17;22.33;;;;;;;10.95;100.00;100774.78;5079635;28;20012;-79
2022/11/08 02:00:43;;;;;;;22.02;21.08;;;;;;;10.98;100.00;100790.34;5061985;28;20035;-79
2022/11/08 02:03:12;;;;;;;25.00;24.05;;;;;;;11.03;100.00;100790.69;5060970;28;20024;-78
2022/11/08 02:05:39;;;;;;;32.45;31.08;;;;;;;10.94;100.00;100778.44;5079283;28;20051;-79
2022/11/08 02:08:13;;;;;;;32.33;30.73;;;;;;;11.08;100.00;100783.16;5061067;28;20484;-78
2022/11/08 02:10:44;;;;;;;36.38;34.28;;;;;;;11.05;100.00;100772.88;5076380;28;20036;-78
2022/11/08 02:13:22;;;;;;;25.85;24.45;;;;;;;11.06;100.00;100774.56;5061220;28;20028;-78
2022/11/08 02:15:47;;;;;;;23.52;22.42;;;;;;;10.99;100.00;100757.66;5077460;28;20028;-79
2022/11/08 02:18:14;;;;;;;26.73;25.45;;;;;;;10.97;100.00;100758.81;5061417;28;20070;-79
2022/11/08 02:21:04;;;;;;;23.05;22.02;;;;;;;11.07;100.00;100776.22;5072153;28;20028;-78
2022/11/08 02:23:49;;;;;;;24.42;23.08;;;;;;;11.05;100.00;100783.44;5076590;28;20056;-78
2022/11/08 02:26:16;;;;;;;20.45;19.08;;;;;;;11.03;100.00;100764.28;5076953;28;20434;-78
2022/11/08 02:28:44;;;;;;;22.67;21.80;;;;;;;11.01;100.00;100760.16;5080592;28;20383;-78
2022/11/08 02:31:11;;;;;;;23.20;21.90;;;;;;;10.92;100.00;100751.34;5076018;28;20424;-78
2022/11/08 02:33:37;;;;;;;25.70;24.67;;;;;;;10.94;100.00;100759.13;5072656;28;20047;-79
2022/11/08 02:36:04;;;;;;;24.65;23.23;;;;;;;10.74;100.00;100725.00;5061284;28;20024;-79
2022/11/08 02:38:31;;;;;;;30.60;28.83;;;;;;;10.74;100.00;100740.84;5062025;28;20066;-78
2022/11/08 02:40:56;;;;;;;28.02;26.98;;;;;;;10.83;100.00;100753.09;5078981;28;20028;-78
2022/11/08 02:43:23;;;;;;;28.48;26.98;;;;;;;10.78;100.00;100743.97;5060984;28;20032;-79
2022/11/08 02:45:50;;;;;;;31.08;29.58;;;;;;;10.64;100.00;100730.34;5075705;28;20040;-79
2022/11/08 02:48:18;;;;;;;28.63;27.42;;;;;;;10.76;100.00;100740.69;5058981;28;20392;-78
2022/11/08 02:50:44;;;;;;;26.42;25.13;;;;;;;10.65;100.00;100720.63;5075316;28;20039;-78
2022/11/08 02:53:09;;;;;;;28.45;27.33;;;;;;;10.70;100.00;100731.56;5077009;28;20032;-79
2022/11/08 02:55:35;;;;;;;33.72;32.22;;;;;;;10.59;100.00;100732.63;5080810;28;20029;-78
2022/11/08 02:58:01;;;;;;;28.90;27.50;;;;;;;10.62;100.00;100736.75;5044724;28;20024;-78
2022/11/08 03:00:27;;;;;;;26.88;25.67;;;;;;;10.51;100.00;100722.00;5076770;28;20044;-78
2022/11/08 03:02:53;;;;;;;34.63;33.00;;;;;;;10.59;100.00;100745.81;5057341;28;20145;-78
2022/11/08 03:05:19;;;;;;;30.23;28.70;;;;;;;10.44;100.00;100720.97;5078790;28;20036;-78
2022/11/08 03:07:45;;;;;;;30.42;29.35;;;;;;;10.55;100.00;100738.38;5057475;28;20051;-78
2022/11/08 03:10:11;;;;;;;30.60;28.70;;;;;;;10.48;100.00;100738.16;5043502;28;20033;-78
2022/11/08 03:12:37;;;;;;;32.97;30.88;;;;;;;10.51;100.00;100748.38;5077616;28;20073;-78
2022/11/08 03:15:07;;;;;;;30.23;28.92;;;;;;;10.49;100.00;100750.34;5056111;28;20416;-78
2022/11/08 03:17:33;;;;;;;29.45;28.20;;;;;;;10.45;100.00;100743.72;5078473;28;20029;-79
2022/11/08 03:19:59;;;;;;;32.38;31.00;;;;;;;10.32;100.00;100722.97;5059630;28;20399;-79
2022/11/08 03:22:25;;;;;;;29.05;27.75;;;;;;;10.43;100.00;100746.53;5079714;28;20032;-79
2022/11/08 03:24:50;;;;;;;33.05;31.48;;;;;;;10.39;100.00;100746.97;5056955;28;20529;-78
2022/11/08 03:27:18;;;;;;;31.33;30.08;;;;;;;10.35;100.00;100735.88;5077545;28;20055;-78
2022/11/08 03:29:44;;;;;;;29.98;28.77;;;;;;;10.34;100.00;100743.94;5059503;28;20412;-78
2022/11/08 03:32:10;;;;;;;34.03;32.15;;;;;;;10.18;100.00;100729.59;5058507;28;20024;-78
2022/11/08 03:34:35;;;;;;;30.35;29.17;;;;;;;10.13;100.00;100720.50;5058122;28;20032;-79
2022/11/08 03:37:01;;;;;;;33.65;32.33;;;;;;;10.16;100.00;100739.47;5062158;28;20032;-78
2022/11/08 03:39:26;;;;;;;34.03;32.53;;;;;;;10.21;100.00;100746.91;5060046;28;20111;-79
2022/11/08 03:41:51;;;;;;;36.15;34.70;;;;;;;10.09;100.00;100727.88;5041615;28;20026;-78
2022/11/08 03:44:16;;;;;;;35.60;33.78;;;;;;;10.17;100.00;100740.28;5059357;28;20035;-78
2022/11/08 03:46:42;;;;;;;39.38;37.72;;;;;;;10.13;100.00;100734.50;5077010;28;20027;-78
2022/11/08 03:49:07;;;;;;;42.53;40.70;;;;;;;10.00;100.00;100720.84;5076436;28;20543;-78
2022/11/08 03:51:33;;;;;;;31.98;30.48;;;;;;;10.04;100.00;100724.84;5057997;28;20031;-78
2022/11/08 03:53:58;;;;;;;32.92;31.48;;;;;;;10.02;100.00;100724.16;5027085;28;20401;-78
2022/11/08 03:56:23;;;;;;;31.95;30.48;;;;;;;10.03;100.00;100723.19;5041106;28;20020;-78
2022/11/08 03:58:49;;;;;;;32.83;31.48;;;;;;;9.98;100.00;100721.00;5077132;28;20077;-79
2022/11/08 04:01:15;;;;;;;34.70;33.42;;;;;;;9.80;100.00;100697.25;5074111;28;20057;-78
2022/11/08 04:03:40;;;;;;;39.45;37.97;;;;;;;9.96;100.00;100722.13;5040849;28;20033;-79
2022/11/08 04:06:06;;;;;;;31.80;30.48;;;;;;;9.96;100.00;100722.13;5055560;28;20040;-78
2022/11/08 04:08:31;;;;;;;38.50;36.28;;;;;;;9.96;100.00;100716.84;5075433;28;20028;-78
2022/11/08 04:15:13;;;;;;;37.63;36.15;;;;;;;9.95;100.00;100705.50;5042238;28;20407;-78
2022/11/08 04:16:32;;;;;;;30.05;28.73;;;;;;;9.95;100.00;100708.13;5061435;28;20048;-78
2022/11/08 04:21:44;;;;;;;31.75;30.30;;;;;;;9.87;100.00;100693.03;5060477;28;20074;-78
2022/11/08 04:24:09;;;;;;;32.13;30.92;;;;;;;9.80;100.00;100680.59;5078296;28;20036;-78
2022/11/08 04:26:34;;;;;;;33.63;32.17;;;;;;;9.87;100.00;100700.94;5056032;28;20047;-79
2022/11/08 04:29:02;;;;;;;36.08;34.72;;;;;;;9.85;100.00;100689.72;5059219;28;20060;-79
2022/11/08 04:31:27;;;;;;;35.88;34.28;;;;;;;9.83;100.00;100694.31;5074129;28;20597;-78
2022/11/08 04:33:53;;;;;;;34.40;33.03;;;;;;;9.82;100.00;100687.41;5059601;28;20062;-78
2022/11/08 04:36:18;;;;;;;35.53;34.17;;;;;;;9.81;100.00;100687.53;5075773;28;20062;-79
2022/11/08 04:38:50;;;;;;;37.05;35.55;;;;;;;9.81;100.00;100677.81;5075432;28;20516;-79
2022/11/08 04:41:18;;;;;;;39.00;37.40;;;;;;;9.81;100.00;100680.44;5074746;28;20032;-78
2022/11/08 04:43:44;;;;;;;41.65;39.92;;;;;;;9.70;100.00;100661.41;5076669;28;20025;-78
2022/11/08 04:46:15;;;;;;;39.22;37.53;;;;;;;9.78;100.00;100670.22;5057512;28;20047;-78
2022/11/08 04:48:42;;;;;;;31.23;30.08;;;;;;;9.63;100.00;100653.25;5077386;28;20039;-78
2022/11/08 04:51:11;;;;;;;35.50;33.88;;;;;;;9.81;100.00;100669.09;5075639;28;20034;-78
2022/11/08 04:53:36;;;;;;;31.45;30.10;;;;;;;9.82;100.00;100679.50;5057037;28;20059;-79
2022/11/08 04:56:20;;;;;;;38.15;36.65;;;;;;;9.78;100.00;100672.03;5057018;28;20055;-79
2022/11/08 04:58:48;;;;;;;34.17;32.85;;;;;;;9.63;100.00;100646.19;5052144;28;20464;-79
2022/11/08 05:01:19;;;;;;;32.25;30.85;;;;;;;9.71;100.00;100655.97;5073920;28;20026;-78
2022/11/08 05:03:46;;;;;;;31.40;30.10;;;;;;;9.63;100.00;100637.44;5074056;28;20024;-78
2022/11/08 05:06:18;;;;;;;29.42;28.00;;;;;;;9.81;100.00;100667.28;5056713;28;20038;-79
2022/11/08 05:08:43;;;;;;;35.08;33.38;;;;;;;9.81;100.00;100662.00;5074504;28;20031;-78
2022/11/08 05:11:14;;;;;;;32.65;31.30;;;;;;;9.82;100.00;100666.31;5075773;28;20032;-79
2022/11/08 05:13:40;;;;;;;31.63;29.67;;;;;;;9.80;100.00;100655.09;5072261;28;20037;-79
2022/11/08 05:16:14;;;;;;;28.65;27.38;;;;;;;9.86;100.00;100654.50;5054906;28;20046;-78
2022/11/08 05:18:39;;;;;;;34.58;33.35;;;;;;;9.76;100.00;100637.91;5059193;28;20445;-78
2022/11/08 05:23:49;;;;;;;26.33;24.58;;;;;;;9.91;100.00;100653.19;5073189;28;20043;-79
2022/11/08 05:26:17;;;;;;;29.75;28.60;;;;;;;9.85;100.00;100641.44;5057553;28;20736;-79
2022/11/08 05:28:42;;;;;;;31.75;29.75;;;;;;;9.78;100.00;100635.13;5056969;28;20471;-78
2022/11/08 05:31:08;;;;;;;29.00;27.92;;;;;;;9.84;100.00;100643.28;5042805;28;20169;-78
2022/11/08 05:33:34;;;;;;;28.05;27.00;;;;;;;9.71;100.00;100626.97;5076355;28;20032;-78
2022/11/08 05:36:04;;;;;;;28.92;27.85;;;;;;;9.77;100.00;100638.72;5056937;28;20040;-79
2022/11/08 05:38:30;;;;;;;27.30;26.10;;;;;;;9.70;100.00;100633.22;5073057;28;20029;-78
2022/11/08 05:41:07;;;;;;;31.85;30.63;;;;;;;9.66;100.00;100634.50;5056407;28;20031;-79
2022/11/08 05:43:33;;;;;;;25.77;24.77;;;;;;;9.49;100.00;100609.78;5059668;28;20681;-79
2022/11/08 05:45:58;;;;;;;31.17;29.73;;;;;;;9.60;100.00;100637.72;5075914;28;20111;-78
2022/11/08 05:48:24;;;;;;;33.33;32.10;;;;;;;9.53;100.00;100620.88;5075981;28;20016;-79
2022/11/08 05:50:50;;;;;;;30.08;28.92;;;;;;;9.54;100.00;100620.72;5058081;28;20062;-79
2022/11/08 05:53:15;;;;;;;33.42;32.10;;;;;;;9.56;100.00;100620.56;5074906;28;20027;-79
2022/11/08 05:55:41;;;;;;;36.65;34.70;;;;;;;9.58;100.00;100618.59;5074487;28;20059;-78
2022/11/08 05:58:07;;;;;;;36.00;34.28;;;;;;;9.58;100.00;100608.06;5075593;28;20085;-78
2022/11/08 06:00:32;;;;;;;34.92;32.83;;;;;;;9.42;100.00;100574.50;5075340;28;20412;-78
2022/11/08 06:02:58;;;;;;;50.75;48.65;;;;;;;9.60;100.00;100592.94;5025475;28;20029;-79
2022/11/08 06:05:23;;;;;;;39.67;38.20;;;;;;;9.50;100.00;100579.03;5072925;28;20115;-77
2022/11/08 06:07:48;;;;;;;36.20;34.88;;;;;;;9.57;100.00;100585.34;5058171;28;20043;-79
2022/11/08 06:10:14;;;;;;;34.97;33.67;;;;;;;9.55;100.00;100587.28;5036739;28;20065;-78
2022/11/08 06:12:39;;;;;;;33.47;31.63;;;;;;;9.40;100.00;100563.28;5066295;28;20603;-78
2022/11/08 06:15:06;;;;;;;35.15;33.70;;;;;;;9.50;100.00;100585.13;5051947;28;20562;-78
2022/11/08 06:17:32;;;;;;;31.38;30.23;;;;;;;9.51;100.00;100584.13;5050922;28;20044;-78
2022/11/08 06:19:57;;;;;;;33.78;32.45;;;;;;;9.42;100.00;100567.41;5055603;28;20486;-78
2022/11/08 06:22:22;;;;;;;36.30;34.90;;;;;;;9.50;100.00;100585.13;5041571;28;20036;-78
2022/11/08 06:24:48;;;;;;;33.95;32.08;;;;;;;9.35;100.00;100555.00;5055344;28;20545;-77
2022/11/08 06:27:14;;;;;;;29.15;27.90;;;;;;;9.38;100.00;100555.50;5062803;28;20035;-77
2022/11/08 06:29:41;;;;;;;25.80;24.85;;;;;;;9.31;100.00;100538.66;5052336;28;20040;-78
2022/11/08 06:32:09;;;;;;;30.63;29.42;;;;;;;9.34;100.00;100541.00;5068934;28;20046;-77
2022/11/08 06:34:35;;;;;;;31.77;30.33;;;;;;;9.42;100.00;100548.97;5062680;28;20032;-77
2022/11/08 06:37:00;;;;;;;33.60;32.20;;;;;;;9.40;100.00;100555.38;5058916;28;20031;-77
2022/11/08 06:39:26;;;;;;;32.75;31.48;;;;;;;9.26;100.00;100525.13;5040494;28;20135;-77
2022/11/08 06:41:51;;;;;;;29.85;28.65;;;;;;;9.27;100.00;100537.28;5071178;28;20039;-76
2022/11/08 06:44:16;;;;;;;29.45;27.65;;;;;;;9.37;100.00;100553.06;5058584;28;20035;-76
2022/11/08 06:46:42;;;;;;;29.75;28.60;;;;;;;9.32;100.00;100548.22;5058857;28;20475;-77
2022/11/08 06:49:07;;;;;;;28.63;27.42;;;;;;;9.20;100.00;100517.81;5058707;28;20032;-77
2022/11/08 06:51:33;;;;;;;27.20;25.73;;;;;;;9.33;100.00;100539.34;5042055;28;20043;-77
2022/11/08 06:53:59;;;;;;;35.80;34.25;;;;;;;9.23;100.00;100531.53;5074770;28;20031;-77
2022/11/08 06:56:24;;;;;;;31.55;29.45;;;;;;;9.35;100.00;100547.09;5074326;28;20029;-77
2022/11/08 06:58:51;;;;;;;30.48;28.98;;;;;;;9.36;100.00;100552.19;5059458;28;20036;-78
2022/11/08 07:01:17;;;;;;;23.92;22.90;;;;;;;9.36;100.00;100552.19;5057935;28;20092;-76
2022/11/08 07:03:43;;;;;;;23.90;22.85;;;;;;;9.31;100.00;100537.84;5041392;28;20479;-77
2022/11/08 07:06:08;;;;;;;33.22;31.88;;;;;;;9.31;100.00;100533.41;5035579;28;20032;-77
2022/11/08 07:08:34;;;;;;;27.10;25.52;;;;;;;9.42;100.00;100548.16;5078645;28;20313;-77
2022/11/08 07:11:00;;;;;;;23.95;22.42;;;;;;;9.38;100.00;100538.88;5058194;28;20177;-77
2022/11/08 07:13:25;;;;;;;22.70;21.85;;;;;;;9.47;100.00;100541.47;5059690;28;20463;-77
2022/11/08 07:15:50;;;;;;;27.58;26.33;;;;;;;9.37;100.00;100522.25;5055933;28;20148;-77
2022/11/08 07:18:18;;;;;;;26.55;25.40;;;;;;;9.46;100.00;100521.34;5054016;28;20536;-77
2022/11/08 07:20:44;;;;;;;21.02;20.20;;;;;;;9.60;100.00;100527.06;5043821;28;20032;-77
2022/11/08 07:23:10;;;;;;;21.08;19.65;;;;;;;9.63;100.00;100521.50;5075912;28;20392;-77
2022/11/08 07:25:36;;;;;;;20.10;19.35;;;;;;;9.66;100.00;100510.66;5059055;28;20392;-77
2022/11/08 07:28:04;;;;;;;20.88;19.65;;;;;;;9.72;100.00;100510.06;5076504;28;20059;-77
2022/11/08 07:30:30;;;;;;;32.05;30.67;;;;;;;9.76;100.00;100508.78;5076143;28;20024;-77
2022/11/08 07:32:56;;;;;;;16.85;15.40;;;;;;;9.79;100.00;100503.19;5058743;28;20042;-77
2022/11/08 07:35:23;;;;;;;17.35;16.60;;;;;;;9.70;100.00;100482.19;5060438;28;20696;-77
2022/11/08 07:37:48;;;;;;;17.05;16.42;;;;;;;9.85;100.00;100509.66;5058297;28;20051;-78
2022/11/08 07:40:14;;;;;;;13.95;13.00;;;;;;;9.89;100.00;100511.84;5057715;28;20471;-77
2022/11/08 07:42:40;;;;;;;12.85;12.15;;;;;;;9.93;100.00;100499.19;5077599;28;20016;-77
2022/11/08 07:45:07;;;;;;;8.95;8.32;;;;;;;9.94;100.00;100495.56;5039528;28;20027;-77
2022/11/08 07:47:33;;;;;;;11.18;10.73;;;;;;;9.96;100.00;100490.94;5074167;28;20119;-76
2022/11/08 07:49:59;;;;;;;9.15;8.73;;;;;;;9.99;100.00;100501.19;5074780;28;20706;-77
2022/11/08 07:52:24;;;;;;;7.85;7.00;;;;;;;9.89;100.00;100480.19;5057920;28;20147;-77
2022/11/08 07:54:49;;;;;;;10.35;9.88;;;;;;;10.07;100.00;100492.50;5075934;28;20472;-77
2022/11/08 07:57:15;;;;;;;6.35;5.78;;;;;;;10.00;100.00;100475.66;5075010;28;20559;-77
2022/11/08 07:59:40;;;;;;;9.35;8.60;;;;;;;10.02;100.00;100474.53;5040309;28;20458;-77
2022/11/08 08:02:09;;;;;;;5.40;5.00;;;;;;;10.17;100.00;100493.25;5041527;28;20039;-76
2022/11/08 08:04:34;;;;;;;5.43;5.13;;;;;;;10.23;100.00;100484.69;5057442;28;20112;-76
2022/11/08 08:07:00;;;;;;;6.60;6.10;;;;;;;10.27;100.00;100485.19;5059648;28;20140;-77
2022/11/08 08:09:25;;;;;;;6.22;5.72;;;;;;;10.32;100.00;100482.13;5076168;28;20107;-77
2022/11/08 08:11:50;;;;;;;7.47;7.07;;;;;;;10.36;100.00;100480.81;5040095;28;20073;-77
2022/11/08 08:14:16;;;;;;;5.22;4.93;;;;;;;10.41;100.00;100482.03;5058459;28;20095;-77
2022/11/08 08:16:41;;;;;;;6.05;5.53;;;;;;;10.44;100.00;100480.88;5075729;28;20024;-77
2022/11/08 08:19:07;;;;;;;8.40;7.90;;;;;;;10.34;100.00;100456.41;5039777;28;20028;-77
2022/11/08 08:21:32;;;;;;;8.57;7.88;;;;;;;10.51;100.00;100489.81;5058605;28;20047;-77
2022/11/08 08:23:57;;;;;;;7.57;5.20;;;;;;;10.47;100.00;100451.53;5057462;28;20032;-77
2022/11/08 08:26:23;;;;;;;3.63;3.33;;;;;;;10.56;100.00;100460.28;5055761;28;20044;-77
2022/11/08 08:28:49;;;;;;;4.75;4.35;;;;;;;10.53;100.00;100450.06;5057157;28;20048;-77
2022/11/08 08:31:14;;;;;;;5.15;3.75;;;;;;;10.46;100.00;100418.22;5041742;28;20059;-77
2022/11/08 08:33:40;;;;;;;4.60;4.05;;;;;;;10.70;100.00;100452.59;5052613;28;20058;-77
2022/11/08 08:36:05;;;;;;;5.10;4.72;;;;;;;10.61;100.00;100427.19;5073628;28;20032;-77
2022/11/08 08:38:32;;;;;;;3.97;3.67;;;;;;;10.52;100.00;100406.19;5056596;28;20028;-77
2022/11/08 08:40:59;;;;;;;3.00;2.80;;;;;;;10.84;100.00;100443.25;5058181;28;20063;-78
2022/11/08 08:43:26;;;;;;;6.00;2.60;;;;;;;10.79;100.00;100434.16;5057855;28;20675;-77
2022/11/08 08:45:53;;;;;;;2.25;2.15;;;;;;;10.92;100.00;100429.22;5075322;28;20032;-77
2022/11/08 08:48:19;;;;;;;2.35;2.13;;;;;;;11.17;100.00;100434.53;5056639;28;20019;-78
2022/11/08 08:50:45;;;;;;;2.78;1.77;;;;;;;11.37;100.00;100422.66;5075291;28;20031;-77
2022/11/08 08:53:11;;;;;;;5.32;1.92;;;;;;;11.70;100.00;100422.63;5075535;28;20189;-78
2022/11/08 08:55:38;;;;;;;2.55;1.30;;;;;;;11.94;97.81;100414.69;5055640;28;20031;-77
2022/11/08 08:58:04;;;;;;;1.25;1.15;;;;;;;11.86;96.85;100401.44;5074230;28;20525;-77
2022/11/08 09:00:30;;;;;;;2.47;1.45;;;;;;;11.70;96.98;100410.25;5058028;28;20028;-77
2022/11/08 09:03:01;;;;;;;3.55;1.30;;;;;;;11.48;98.21;100406.47;5074803;28;20039;-76
2022/11/08 09:05:26;;;;;;;;;;;;;;;11.42;98.77;100425.63;5041057;28;20038;-77
2022/11/08 09:07:54;;;;;;;1.23;0.82;;;;;;;11.36;99.66;100431.56;5071129;28;20307;-77
2022/11/08 09:10:19;;;;;;;4.60;3.22;;;;;;;11.42;99.91;100425.63;5040367;28;20028;-77
2022/11/08 09:12:44;;;;;;;4.43;1.05;;;;;;;11.45;100.00;100429.75;5041040;28;20038;-77
2022/11/08 09:15:10;;;;;;;1.70;1.42;;;;;;;11.66;98.83;100431.88;5041286;28;20043;-77
2022/11/08 09:17:35;;;;;;;3.28;1.52;;;;;;;12.03;98.17;100427.88;5055939;28;20029;-77
2022/11/08 09:20:01;;;;;;;1.40;1.17;;;;;;;12.38;94.62;100388.72;5042093;28;20085;-77
2022/11/08 09:22:26;;;;;;;1.20;1.05;;;;;;;12.93;92.84;100423.00;5056976;28;20037;-77
2022/11/08 09:24:51;;;;;;;3.95;1.45;;;;;;;12.65;91.84;100396.19;5076907;28;20056;-77
2022/11/08 09:27:17;;;;;;;2.40;1.25;;;;;;;12.49;92.36;100423.56;5040329;28;20038;-77
2022/11/08 09:29:42;;;;;;;1.80;1.00;;;;;;;12.42;93.19;100408.56;5073993;28;20064;-77
2022/11/08 09:32:07;;;;;;;1.75;1.25;;;;;;;12.10;94.19;100400.56;5056777;28;20469;-77
2022/11/08 09:34:33;;;;;;;1.30;1.20;;;;;;;12.30;94.37;100418.69;5040816;28;20108;-77
2022/11/08 09:36:58;;;;;;;1.55;1.00;;;;;;;12.57;94.15;100414.78;5076145;28;20025;-77
2022/11/08 09:39:23;;;;;;;7.35;1.30;;;;;;;12.53;92.77;100392.28;5054856;28;20082;-77
2022/11/08 09:42:11;;;;;;;2.78;1.20;;;;;;;12.74;92.93;100418.16;5039346;28;20037;-77
2022/11/08 09:44:56;;;;;;;6.15;1.25;;;;;;;12.87;91.86;100414.91;5055229;28;20028;-77
2022/11/08 09:47:24;;;;;;;1.15;1.00;;;;;;;12.83;91.96;100400.41;5078483;28;20017;-77
2022/11/08 09:50:02;;;;;;;1.40;1.20;;;;;;;13.07;90.16;100405.50;5078120;28;20105;-77
2022/11/08 09:52:29;;;;;;;1.15;0.73;;;;;;;13.49;89.43;100408.69;5076723;28;20103;-77
2022/11/08 09:55:13;;;;;;;1.33;1.23;;;;;;;13.37;87.41;100395.06;5063118;28;20099;-77
2022/11/08 09:58:20;;;;;;;1.95;0.80;;;;;;;13.32;87.53;100398.22;5078193;28;20089;-77
2022/11/08 10:00:49;;;;;;;1.73;1.13;;;;;;;13.36;87.63;100399.50;5041959;28;20037;-77
2022/11/08 10:03:16;;;;;;;1.13;0.80;;;;;;;13.40;87.25;100399.97;5060838;28;20054;-77
2022/11/08 10:05:53;;;;;;;4.10;1.10;;;;;;;13.49;85.60;100368.91;5044780;28;20435;-77
2022/11/08 10:08:31;;;;;;;4.72;0.85;;;;;;;13.89;84.47;100398.66;5076072;28;20056;-77
2022/11/08 10:11:34;;;;;;;1.45;0.95;;;;;;;13.91;83.80;100392.16;5077131;28;20107;-78
2022/11/08 10:14:43;;;;;;;1.83;1.17;;;;;;;13.50;83.92;100399.72;5015113;28;20033;-77
2022/11/08 10:17:23;;;;;;;0.95;0.75;;;;;;;13.71;85.43;100391.06;4999465;28;20044;-77
2022/11/08 10:19:58;;;;;;;1.65;0.90;;;;;;;13.67;84.89;100389.78;5015612;28;20493;-77
2022/11/08 10:22:49;;;;;;;1.10;0.80;;;;;;;13.44;85.85;100389.84;5018094;28;20038;-77
2022/11/08 10:25:23;;;;;;;2.00;1.10;;;;;;;13.33;85.25;100383.97;4990501;28;20029;-77
2022/11/08 10:27:53;;;;;;;3.25;1.65;;;;;;;13.24;86.50;100373.56;5017424;28;20509;-78
2022/11/08 10:30:26;;;;;;;3.10;1.17;;;;;;;13.09;86.92;100377.03;4997004;28;20176;-77
2022/11/08 10:32:55;;;;;;;1.73;0.80;;;;;;;13.10;87.50;100367.25;5016750;28;20037;-77
2022/11/08 10:35:30;;;;;;;2.33;1.20;;;;;;;12.94;87.52;100342.53;4993667;28;20127;-77
2022/11/08 10:37:58;;;;;;;1.83;1.30;;;;;;;12.92;87.54;100347.19;4999726;28;20263;-77
2022/11/08 10:40:32;;;;;;;1.40;1.08;;;;;;;12.98;87.45;100358.91;4998716;28;20061;-77
2022/11/08 10:43:21;;;;;;;1.73;1.35;;;;;;;12.89;87.67;100355.50;4999877;28;20113;-78
2022/11/08 10:45:46;;;;;;;3.08;1.10;;;;;;;13.02;87.09;100396.44;5016197;28;20033;-77
2022/11/08 10:48:12;;;;;;;5.78;1.27;;;;;;;13.02;86.83;100385.84;5031975;28;20064;-77
2022/11/08 10:50:49;;;;;;;3.05;1.55;;;;;;;12.95;87.19;100365.34;5059692;28;20225;-77
2022/11/08 10:53:29;;;;;;;3.00;1.27;;;;;;;13.02;87.75;100393.78;5060114;28;20248;-77
2022/11/08 10:56:05;;;;;;;2.80;1.52;;;;;;;13.01;87.35;100373.63;5077929;28;20037;-77
2022/11/08 10:58:42;;;;;;;1.15;0.88;;;;;;;12.92;87.36;100405.44;5041147;28;20143;-77
2022/11/08 11:01:22;;;;;;;2.10;1.17;;;;;;;12.84;87.86;100392.25;5078134;28;20145;-76
2022/11/08 11:03:49;;;;;;;1.73;1.63;;;;;;;12.69;88.21;100380.78;5059936;28;20128;-77
2022/11/08 11:06:28;;;;;;;2.10;1.10;;;;;;;12.70;88.85;100388.53;5075732;28;20028;-78
2022/11/08 11:08:56;;;;;;;7.18;1.33;;;;;;;12.69;88.71;100380.78;5076743;28;20028;-79
2022/11/08 11:11:36;;;;;;;1.90;1.80;;;;;;;12.61;88.70;100367.56;5058268;28;20029;-77
2022/11/08 11:14:13;;;;;;;1.90;1.40;;;;;;;12.40;88.53;100345.22;5077729;28;20028;-76
2022/11/08 11:17:01;;;;;;;2.28;1.10;;;;;;;12.53;88.60;100347.28;5076262;28;20020;-76
2022/11/08 11:19:28;;;;;;;1.38;1.17;;;;;;;12.66;88.15;100354.66;5074511;28;20032;-77
2022/11/08 11:21:55;;;;;;;3.15;1.60;;;;;;;12.58;88.61;100352.88;5076755;28;20388;-77
2022/11/08 11:24:21;;;;;;;2.75;1.40;;;;;;;12.67;88.71;100335.13;5077412;28;20028;-76
2022/11/08 11:26:55;;;;;;;1.73;1.42;;;;;;;12.86;88.86;100355.81;5041197;28;20927;-76
2022/11/08 11:29:25;;;;;;;1.30;1.20;;;;;;;12.86;88.61;100347.06;5057630;28;20078;-76
2022/11/08 11:31:53;;;;;;;5.30;1.70;;;;;;;12.90;88.66;100358.97;5059621;28;20037;-77
2022/11/08 11:34:18;;;;;;;1.88;1.40;;;;;;;12.91;88.27;100363.25;5049264;28;20048;-76